Time;durP1;ratioP1;P1;durP2;ratioP2;P2;SDS_P1;SDS_P2;PMS_P1;PMS_P2;Temp;Humidity;BMP_temperature;BMP_pressure;BME280_temperature;BME280_humidity;BME280_pressure;Samples;Min_cycle;Max_cycle;Signal;HPM_P1;HPM_P2
2023/10/09 00:00:50;;;;;;;21.93;6.10;;;12.70;99.90;;;;;;5014650;28;20105;-86
2023/10/09 00:03:18;;;;;;;21.05;5.30;;;12.70;99.90;;;;;;5016504;28;20303;-87
2023/10/09 00:08:16;;;;;;;19.80;6.22;;;12.70;99.90;;;;;;5015803;28;20120;-86
2023/10/09 00:10:53;;;;;;;12.15;5.05;;;12.70;99.90;;;;;;5016915;28;20039;-86
2023/10/09 00:13:23;;;;;;;16.25;5.38;;;12.70;99.90;;;;;;5015514;28;20396;-86
2023/10/09 00:15:53;;;;;;;18.83;5.43;;;12.70;99.90;;;;;;5013023;28;20458;-87
2023/10/09 00:18:28;;;;;;;19.80;6.47;;;12.70;99.90;;;;;;5015038;28;20022;-86
2023/10/09 00:20:54;;;;;;;15.32;5.18;;;12.70;99.90;;;;;;5014809;28;20503;-86
2023/10/09 00:23:22;;;;;;;16.85;4.85;;;12.70;99.90;;;;;;5015445;28;20042;-86
2023/10/09 00:26:05;;;;;;;21.48;5.75;;;12.70;99.90;;;;;;5015652;28;20033;-87
2023/10/09 00:28:30;;;;;;;14.95;5.22;;;12.70;99.90;;;;;;5015912;28;20129;-86
2023/10/09 00:30:56;;;;;;;21.23;6.50;;;12.70;99.90;;;;;;5017418;28;20014;-86
2023/10/09 00:33:22;;;;;;;17.42;5.40;;;12.60;99.90;;;;;;5015888;28;20025;-86
2023/10/09 00:35:54;;;;;;;12.02;4.70;;;12.60;99.90;;;;;;5016654;28;20083;-87
2023/10/09 00:40:47;;;;;;;14.75;4.78;;;12.60;99.90;;;;;;5017068;28;20504;-87
2023/10/09 00:43:15;;;;;;;20.15;5.55;;;12.60;99.90;;;;;;5015368;28;20053;-87
2023/10/09 00:45:44;;;;;;;19.02;5.47;;;12.60;99.90;;;;;;5016015;28;20025;-87
2023/10/09 00:48:13;;;;;;;20.33;5.07;;;12.60;99.90;;;;;;5019527;28;20034;-87
2023/10/09 00:50:46;;;;;;;14.90;5.47;;;12.60;99.90;;;;;;5021570;28;20022;-87
2023/10/09 00:53:18;;;;;;;21.52;5.60;;;12.60;99.90;;;;;;5028816;28;20109;-89
2023/10/09 00:55:55;;;;;;;19.95;5.03;;;12.60;99.90;;;;;;5028589;28;20026;-88
2023/10/09 00:58:23;;;;;;;21.95;5.43;;;12.60;99.90;;;;;;5016590;28;20040;-86
2023/10/09 01:00:52;;;;;;;21.52;5.38;;;12.60;99.90;;;;;;5015284;28;20087;-88
2023/10/09 01:03:20;;;;;;;17.88;5.38;;;12.60;99.90;;;;;;5013355;28;20509;-87
2023/10/09 01:11:09;;;;;;;17.80;5.85;;;12.60;99.90;;;;;;5033007;28;20030;-86
2023/10/09 01:16:15;;;;;;;24.05;5.05;;;12.60;99.90;;;;;;5015450;28;20029;-86
2023/10/09 01:18:41;;;;;;;27.63;5.55;;;12.60;99.90;;;;;;5015107;28;20085;-86
2023/10/09 01:21:07;;;;;;;20.90;5.25;;;12.60;99.90;;;;;;5015307;28;20033;-86
2023/10/09 01:23:32;;;;;;;20.98;5.10;;;12.60;99.90;;;;;;5014213;28;20029;-86
2023/10/09 01:25:58;;;;;;;20.52;6.07;;;12.70;99.90;;;;;;5015607;28;20079;-87
2023/10/09 01:28:26;;;;;;;19.92;6.05;;;12.70;99.90;;;;;;5016080;28;20065;-87
2023/10/09 01:30:51;;;;;;;21.95;4.70;;;12.70;99.90;;;;;;5019747;28;20604;-87
2023/10/09 01:33:24;;;;;;;23.60;6.03;;;12.70;99.90;;;;;;5001824;28;20026;-86
2023/10/09 01:35:54;;;;;;;18.80;4.97;;;12.70;99.90;;;;;;5017678;28;20025;-86
2023/10/09 01:38:30;;;;;;;21.83;5.25;;;12.70;99.90;;;;;;5019775;28;20041;-87
2023/10/09 01:41:03;;;;;;;22.02;5.00;;;12.70;99.90;;;;;;5019346;28;20719;-86
2023/10/09 01:43:29;;;;;;;17.70;5.72;;;12.80;99.90;;;;;;5018033;28;20392;-86
2023/10/09 01:45:55;;;;;;;21.52;5.38;;;12.80;99.90;;;;;;5017281;28;20037;-86
2023/10/09 01:48:24;;;;;;;20.38;5.07;;;12.80;99.90;;;;;;5017167;28;20411;-86
2023/10/09 01:50:49;;;;;;;22.77;5.93;;;12.90;99.90;;;;;;5017540;28;20037;-86
2023/10/09 01:53:18;;;;;;;19.80;6.63;;;12.90;99.90;;;;;;5018717;28;20634;-86
2023/10/09 01:55:45;;;;;;;20.75;5.35;;;12.90;99.90;;;;;;5017442;28;20033;-86
2023/10/09 02:00:54;;;;;;;23.10;5.35;;;13.00;99.90;;;;;;5019693;28;20071;-86
2023/10/09 02:03:24;;;;;;;23.30;4.70;;;13.10;99.90;;;;;;5018588;28;20042;-88
2023/10/09 02:05:53;;;;;;;25.83;7.25;;;13.20;99.90;;;;;;5017409;28;20111;-87
2023/10/09 02:08:26;;;;;;;22.80;5.20;;;13.20;99.90;;;;;;5017871;28;20040;-86
2023/10/09 02:10:55;;;;;;;19.40;5.57;;;13.30;99.90;;;;;;5018448;28;20018;-88
2023/10/09 02:13:29;;;;;;;22.02;4.93;;;13.30;99.90;;;;;;5017396;28;20029;-86
2023/10/09 02:16:12;;;;;;;19.80;4.88;;;13.40;99.90;;;;;;5017976;28;20052;-87
2023/10/09 02:18:54;;;;;;;20.00;4.75;;;13.40;99.90;;;;;;5016119;28;20034;-88
2023/10/09 02:21:32;;;;;;;22.45;5.13;;;13.40;99.90;;;;;;5015402;28;20128;-86
2023/10/09 02:23:58;;;;;;;27.65;4.97;;;13.50;99.90;;;;;;5018225;28;20034;-86
2023/10/09 02:26:32;;;;;;;16.95;4.70;;;13.50;99.90;;;;;;5017737;28;20391;-87
2023/10/09 02:29:04;;;;;;;20.57;5.63;;;13.50;99.90;;;;;;5016895;28;20021;-86
2023/10/09 02:31:40;;;;;;;15.75;4.85;;;13.50;99.90;;;;;;5017222;28;20302;-86
2023/10/09 02:34:07;;;;;;;24.17;5.72;;;13.50;99.90;;;;;;5017901;28;20026;-87
2023/10/09 02:36:48;;;;;;;19.52;4.63;;;13.50;99.90;;;;;;4999855;28;20884;-86
2023/10/09 02:39:23;;;;;;;28.70;5.55;;;13.50;99.90;;;;;;5018398;28;20029;-86
2023/10/09 02:42:42;;;;;;;25.98;5.47;;;13.50;99.90;;;;;;5017375;28;20025;-86
2023/10/09 02:44:46;;;;;;;24.60;5.30;;;13.60;99.90;;;;;;5008264;28;20033;-88
2023/10/09 02:47:20;;;;;;;22.20;5.22;;;13.60;99.90;;;;;;5017322;28;21024;-86
2023/10/09 02:49:50;;;;;;;25.73;5.75;;;13.60;99.90;;;;;;5016921;28;20132;-86
2023/10/09 02:52:18;;;;;;;19.92;4.95;;;13.70;99.90;;;;;;5019170;28;20041;-87
2023/10/09 02:54:47;;;;;;;22.88;5.10;;;13.70;99.90;;;;;;5030962;28;20057;-88
2023/10/09 02:57:22;;;;;;;21.05;5.07;;;13.70;99.90;;;;;;5025664;28;20136;-86
2023/10/09 02:59:51;;;;;;;;;;;13.70;99.90;;;;;;5022662;28;20128;-86
2023/10/09 03:02:19;;;;;;;16.17;4.88;;;13.70;99.90;;;;;;5016082;28;19939;-86
2023/10/09 03:04:45;;;;;;;22.25;5.32;;;13.70;99.90;;;;;;5018258;28;20025;-87
2023/10/09 03:07:13;;;;;;;19.08;4.70;;;13.70;99.90;;;;;;5016971;28;20048;-88
2023/10/09 03:09:40;;;;;;;17.70;4.68;;;13.60;99.90;;;;;;5018007;28;20095;-89
2023/10/09 03:12:09;;;;;;;21.80;4.85;;;13.60;99.90;;;;;;5017684;28;20171;-86
2023/10/09 03:14:38;;;;;;;28.73;5.63;;;13.60;99.90;;;;;;5016641;28;20025;-87
2023/10/09 03:17:05;;;;;;;21.27;5.70;;;13.60;99.90;;;;;;5017264;28;21221;-87
2023/10/09 03:19:38;;;;;;;25.13;5.38;;;13.60;99.90;;;;;;5016365;28;20032;-86
2023/10/09 03:22:10;;;;;;;23.75;5.00;;;13.60;99.90;;;;;;5016787;28;20045;-86
2023/10/09 03:24:36;;;;;;;20.92;5.50;;;13.50;99.90;;;;;;5016927;28;20026;-86
2023/10/09 03:27:03;;;;;;;24.23;5.57;;;13.50;99.90;;;;;;5017951;28;20526;-86
2023/10/09 03:29:29;;;;;;;25.05;5.72;;;13.50;99.90;;;;;;5016290;28;20640;-87
2023/10/09 03:31:56;;;;;;;22.17;4.93;;;13.50;99.90;;;;;;5018178;28;20063;-86
2023/10/09 03:34:23;;;;;;;26.55;6.05;;;13.50;99.90;;;;;;5017474;28;20067;-86
2023/10/09 03:36:51;;;;;;;20.25;5.45;;;13.50;99.90;;;;;;5016905;28;20029;-87
2023/10/09 03:42:04;;;;;;;23.58;5.07;;;13.50;99.90;;;;;;5019712;28;20034;-86
2023/10/09 03:44:35;;;;;;;25.08;6.25;;;13.50;99.90;;;;;;5021613;28;20029;-87
2023/10/09 03:47:01;;;;;;;21.52;4.78;;;13.50;99.90;;;;;;5026580;28;20037;-89
2023/10/09 03:49:29;;;;;;;26.08;6.85;;;13.50;99.90;;;;;;5027960;28;20084;-86
2023/10/09 03:51:55;;;;;;;18.27;4.28;;;13.60;99.90;;;;;;5023520;28;20033;-86
2023/10/09 03:54:22;;;;;;;22.10;5.03;;;13.60;99.90;;;;;;5015191;28;20361;-87
2023/10/09 03:56:50;;;;;;;26.63;5.10;;;13.60;99.90;;;;;;5016104;28;20018;-88
2023/10/09 03:59:22;;;;;;;20.27;3.90;;;13.60;99.90;;;;;;5016002;28;20033;-86
2023/10/09 04:01:53;;;;;;;14.07;3.80;;;13.60;99.90;;;;;;5014161;28;20034;-87
2023/10/09 04:04:22;;;;;;;20.08;5.97;;;13.60;99.90;;;;;;5009598;28;20645;-86
2023/10/09 04:06:49;;;;;;;22.80;4.95;;;13.60;99.90;;;;;;5013022;28;20025;-86
2023/10/09 04:11:47;;;;;;;21.80;5.20;;;13.60;99.90;;;;;;5014244;28;20029;-86
2023/10/09 04:14:32;;;;;;;19.35;4.90;;;13.60;99.90;;;;;;5013080;28;20041;-88
2023/10/09 04:17:06;;;;;;;21.98;5.38;;;13.60;99.90;;;;;;5014153;28;20029;-86
2023/10/09 04:19:47;;;;;;;16.83;5.07;;;13.60;99.90;;;;;;5013308;28;21287;-88
2023/10/09 04:22:27;;;;;;;19.25;4.97;;;13.50;99.90;;;;;;5012047;28;20045;-86
2023/10/09 04:24:52;;;;;;;18.08;4.80;;;13.50;99.90;;;;;;5013850;28;20026;-87
2023/10/09 04:27:26;;;;;;;20.92;5.90;;;13.40;99.90;;;;;;5012698;28;20064;-86
2023/10/09 04:29:54;;;;;;;17.42;4.40;;;13.40;99.90;;;;;;5011406;28;20096;-86
2023/10/09 04:32:24;;;;;;;19.17;4.80;;;13.30;99.90;;;;;;5011855;28;20444;-88
2023/10/09 04:35:19;;;;;;;20.52;5.07;;;13.20;99.90;;;;;;5013273;28;20221;-88
2023/10/09 04:37:36;;;;;;;25.42;4.88;;;13.20;99.90;;;;;;5014775;28;20029;-88
2023/10/09 04:40:13;;;;;;;20.60;4.95;;;13.10;99.90;;;;;;5025864;28;20399;-86
2023/10/09 04:42:46;;;;;;;17.33;4.50;;;13.10;99.90;;;;;;5014765;28;20025;-88
2023/10/09 04:47:49;;;;;;;21.40;9.15;;;13.00;99.90;;;;;;5013565;28;20037;-86
2023/10/09 05:02:57;;;;;;;17.17;6.95;;;12.90;99.90;;;;;;5010610;28;20041;-87
2023/10/09 05:16:26;;;;;;;22.65;5.03;;;12.80;99.90;;;;;;5015882;28;20026;-86
2023/10/09 05:18:56;;;;;;;21.98;5.60;;;12.80;99.90;;;;;;5013783;28;20809;-86
2023/10/09 05:21:36;;;;;;;19.92;5.07;;;12.90;99.90;;;;;;5010974;28;20026;-89
2023/10/09 05:35:06;;;;;;;21.13;6.30;;;12.80;99.90;;;;;;5013396;28;20026;-87
2023/10/09 05:37:32;;;;;;;20.77;4.97;;;12.80;99.90;;;;;;5016634;28;20041;-88
2023/10/09 05:48:04;;;;;;;23.35;5.15;;;12.80;99.90;;;;;;5015097;28;20559;-84
2023/10/09 05:50:34;;;;;;;15.55;4.63;;;12.80;99.90;;;;;;5014071;28;20038;-89
2023/10/09 05:53:06;;;;;;;16.15;5.13;;;12.80;99.90;;;;;;5014185;28;20026;-89
2023/10/09 06:01:06;;;;;;;24.55;5.60;;;12.80;99.90;;;;;;5014781;28;20033;-90
2023/10/09 06:06:56;;;;;;;27.13;4.95;;;13.00;99.90;;;;;;5015590;28;20579;-88
2023/10/09 06:11:49;;;;;;;21.73;4.88;;;13.20;99.90;;;;;;5012668;28;21528;-88
2023/10/09 06:14:26;;;;;;;20.63;4.80;;;13.40;99.90;;;;;;5016816;28;20033;-87
2023/10/09 06:19:43;;;;;;;24.05;4.70;;;13.60;99.90;;;;;;5013777;28;20077;-88
2023/10/09 06:24:41;;;;;;;19.63;4.57;;;13.80;99.90;;;;;;5013108;28;20050;-88
2023/10/09 06:27:14;;;;;;;20.42;4.68;;;13.90;99.90;;;;;;5016794;28;20021;-89
2023/10/09 06:34:52;;;;;;;18.77;4.18;;;14.30;99.90;;;;;;5017129;28;20033;-88
2023/10/09 06:47:53;;;;;;;24.10;4.60;;;14.70;99.90;;;;;;5022411;28;20483;-89
2023/10/09 06:55:49;;;;;;;19.80;4.05;;;15.00;99.90;;;;;;4983413;28;20183;-88
2023/10/09 06:58:23;;;;;;;24.42;3.65;;;15.10;99.90;;;;;;5008726;28;20029;-88
2023/10/09 07:03:29;;;;;;;;;;;15.30;99.90;;;;;;5009944;28;21814;-89
2023/10/09 07:06:09;;;;;;;16.75;3.42;;;15.40;99.90;;;;;;5007758;28;19913;-89
2023/10/09 07:08:44;;;;;;;20.50;4.43;;;15.50;99.90;;;;;;5008912;28;20415;-89
2023/10/09 07:11:56;;;;;;;22.15;4.00;;;15.60;99.90;;;;;;5007831;28;20111;-89
2023/10/09 07:17:15;;;;;;;22.60;4.90;;;15.80;99.90;;;;;;5010025;28;20116;-90
2023/10/09 07:22:23;;;;;;;23.55;4.28;;;16.00;99.90;;;;;;5008098;28;20033;-90
2023/10/09 07:25:14;;;;;;;19.60;3.90;;;16.10;99.90;;;;;;5007326;28;20037;-90
2023/10/09 07:30:35;;;;;;;19.10;3.55;;;16.30;99.90;;;;;;5007404;28;20112;-89
2023/10/09 07:35:47;;;;;;;17.02;3.70;;;16.50;99.90;;;;;;5008061;28;20372;-91
2023/10/09 07:38:35;;;;;;;20.17;4.00;;;16.60;99.90;;;;;;5005963;28;20112;-89
2023/10/09 07:43:39;;;;;;;22.85;4.03;;;17.00;99.90;;;;;;5009789;28;20037;-91
2023/10/09 07:48:52;;;;;;;18.35;3.95;;;17.40;99.90;;;;;;5011568;28;20048;-90
2023/10/09 07:51:31;;;;;;;22.83;4.45;;;17.60;99.90;;;;;;5013598;28;20025;-92
2023/10/09 07:54:06;;;;;;;20.55;4.65;;;17.80;99.90;;;;;;5012262;28;20065;-90
2023/10/09 07:56:38;;;;;;;20.23;3.85;;;18.00;99.90;;;;;;5012610;28;20037;-80
2023/10/09 07:59:10;;;;;;;18.52;3.88;;;18.10;99.90;;;;;;5017670;28;20033;-86
2023/10/09 08:01:52;;;;;;;17.65;4.32;;;18.20;99.90;;;;;;5015919;28;20061;-82
2023/10/09 08:07:09;;;;;;;20.35;4.05;;;18.60;99.90;;;;;;5023038;28;20037;-82
2023/10/09 08:09:47;;;;;;;14.57;3.50;;;18.80;99.90;;;;;;5017080;28;20037;-82
2023/10/09 08:15:21;;;;;;;22.17;3.83;;;18.90;99.90;;;;;;5015379;28;20404;-82
2023/10/09 08:17:58;;;;;;;24.33;5.13;;;19.00;99.90;;;;;;5012288;28;20017;-79
2023/10/09 08:20:25;;;;;;;28.30;4.63;;;19.10;99.90;;;;;;5012768;28;20064;-83
2023/10/09 08:22:58;;;;;;;18.88;3.97;;;19.10;99.90;;;;;;5014736;28;20025;-84
2023/10/09 08:25:28;;;;;;;26.30;3.65;;;19.20;99.90;;;;;;5014167;28;20033;-83
2023/10/09 08:36:07;;;;;;;22.77;4.80;;;19.90;99.90;;;;;;5012199;28;20026;-82
2023/10/09 08:38:34;;;;;;;22.58;4.47;;;20.00;99.90;;;;;;5014887;28;20075;-83
2023/10/09 08:41:19;;;;;;;24.08;4.68;;;20.10;99.90;;;;;;5016735;28;20047;-83
2023/10/09 08:43:52;;;;;;;22.30;3.88;;;20.10;99.90;;;;;;5017494;28;20488;-84
2023/10/09 08:46:26;;;;;;;24.23;4.20;;;20.10;99.90;;;;;;5018797;28;20110;-83
2023/10/09 08:48:54;;;;;;;19.33;4.50;;;20.20;99.90;;;;;;5020526;28;20030;-85
2023/10/09 08:51:20;;;;;;;24.17;5.07;;;20.10;99.90;;;;;;5018893;28;20025;-83
2023/10/09 08:53:46;;;;;;;14.75;3.50;;;20.10;99.90;;;;;;5020070;28;20036;-85
2023/10/09 08:56:21;;;;;;;20.70;4.57;;;20.20;99.90;;;;;;5018431;28;20021;-85
2023/10/09 08:58:55;;;;;;;24.35;4.35;;;20.20;99.90;;;;;;5018111;28;20029;-82
2023/10/09 09:01:21;;;;;;;18.13;3.97;;;20.20;99.90;;;;;;5019461;28;20926;-83
2023/10/09 09:03:50;;;;;;;17.92;4.78;;;20.20;99.90;;;;;;5020478;28;20025;-83
2023/10/09 09:06:19;;;;;;;25.10;4.05;;;20.20;99.90;;;;;;5020637;28;20029;-85
2023/10/09 09:08:45;;;;;;;18.55;4.28;;;20.20;99.90;;;;;;5020072;28;20041;-85
2023/10/09 09:11:24;;;;;;;19.60;4.65;;;20.20;99.90;;;;;;5021710;28;20092;-84
2023/10/09 09:14:02;;;;;;;20.77;4.00;;;20.20;99.90;;;;;;5020663;28;20057;-84
2023/10/09 09:16:31;;;;;;;22.90;4.88;;;20.30;99.90;;;;;;5019987;28;20037;-84
2023/10/09 09:19:04;;;;;;;24.50;4.43;;;20.40;99.90;;;;;;5020504;28;20052;-84
2023/10/09 09:21:37;;;;;;;35.47;4.55;;;20.40;99.90;;;;;;5022024;28;20577;-83
2023/10/09 09:24:14;;;;;;;19.40;3.67;;;20.40;99.90;;;;;;5019340;28;20078;-83
2023/10/09 09:26:46;;;;;;;17.70;3.85;;;20.40;99.90;;;;;;5022643;28;20056;-83
2023/10/09 09:29:14;;;;;;;16.92;3.67;;;20.50;99.90;;;;;;5023188;28;20037;-83
2023/10/09 09:31:55;;;;;;;20.33;3.83;;;20.50;99.90;;;;;;5014525;28;20116;-90
2023/10/09 09:34:25;;;;;;;20.98;3.83;;;20.60;99.90;;;;;;5016116;28;20037;-88
2023/10/09 09:36:58;;;;;;;20.65;3.67;;;20.70;99.90;;;;;;5018862;28;20027;-90
2023/10/09 09:39:29;;;;;;;16.98;3.92;;;20.70;99.90;;;;;;5028518;28;20033;-89
2023/10/09 09:42:07;;;;;;;23.60;4.18;;;20.80;99.90;;;;;;5043250;28;20089;-89
2023/10/09 09:44:43;;;;;;;25.10;4.78;;;20.80;99.90;;;;;;5035915;28;20049;-87
2023/10/09 09:47:13;;;;;;;19.48;4.00;;;20.80;99.90;;;;;;5019465;28;20112;-89
2023/10/09 09:49:43;;;;;;;19.40;3.97;;;20.80;99.90;;;;;;5013830;28;20928;-89
2023/10/09 09:52:12;;;;;;;22.83;4.47;;;20.80;99.90;;;;;;5012046;28;20033;-88
2023/10/09 09:54:38;;;;;;;22.80;3.83;;;20.80;99.90;;;;;;5011327;28;20045;-88
2023/10/09 09:57:08;;;;;;;24.90;3.70;;;20.90;99.90;;;;;;5010298;28;20108;-88
2023/10/09 09:59:49;;;;;;;23.00;4.13;;;20.90;99.90;;;;;;5014249;28;21002;-88
2023/10/09 10:02:28;;;;;;;16.98;4.13;;;20.90;99.90;;;;;;5019676;28;20040;-89
2023/10/09 10:04:58;;;;;;;18.88;4.25;;;21.00;99.90;;;;;;5017879;28;20127;-89
2023/10/09 10:07:28;;;;;;;18.13;4.40;;;21.00;99.90;;;;;;5015311;28;21318;-88
2023/10/09 10:09:57;;;;;;;24.33;4.15;;;21.10;99.90;;;;;;5015921;28;20034;-91
2023/10/09 10:13:01;;;;;;;20.50;4.38;;;21.10;99.90;;;;;;5014297;28;20056;-82
2023/10/09 10:16:10;;;;;;;20.38;4.35;;;21.20;99.90;;;;;;4943629;29;20602;-82
2023/10/09 10:18:54;;;;;;;27.27;4.60;;;21.30;99.90;;;;;;4942018;29;21411;-83
2023/10/09 10:21:49;;;;;;;14.23;3.50;;;21.40;99.90;;;;;;5008320;28;20950;-83
2023/10/09 10:24:51;;;;;;;25.55;4.15;;;21.50;99.90;;;;;;5023457;28;20388;-83
2023/10/09 10:27:44;;;;;;;16.83;3.85;;;21.70;99.90;;;;;;5017850;28;20025;-86
2023/10/09 10:30:13;;;;;;;22.45;4.07;;;21.80;99.90;;;;;;5015405;28;20030;-87
2023/10/09 10:32:56;;;;;;;26.88;5.20;;;22.00;99.90;;;;;;5017181;28;20021;-86
2023/10/09 10:38:32;;;;;;;18.10;5.10;;;22.10;99.90;;;;;;5020308;28;20037;-80
2023/10/09 10:41:11;;;;;;;21.63;4.78;;;22.10;99.90;;;;;;5018129;28;20068;-81
2023/10/09 10:46:41;;;;;;;20.05;4.15;;;22.10;99.90;;;;;;5018043;28;20136;-81
2023/10/09 10:51:38;;;;;;;19.90;4.20;;;22.00;99.90;;;;;;5022803;28;20025;-82
2023/10/09 10:56:49;;;;;;;24.02;4.13;;;22.00;99.90;;;;;;5022060;28;20040;-82
2023/10/09 10:59:22;;;;;;;17.33;4.43;;;22.00;99.90;;;;;;5023769;28;20100;-82
2023/10/09 11:07:06;;;;;;;26.67;4.75;;;22.20;99.90;;;;;;5019182;28;20144;-82
2023/10/09 11:15:44;;;;;;;23.63;5.00;;;22.70;99.90;;;;;;5020508;28;20088;-81
2023/10/09 11:18:20;;;;;;;18.83;4.13;;;23.00;99.90;;;;;;5023118;28;20069;-80
2023/10/09 11:20:57;;;;;;;22.00;4.95;;;23.40;99.90;;;;;;5019063;28;20574;-84
2023/10/09 11:32:05;;;;;;;25.70;4.50;;;23.80;99.90;;;;;;5019418;28;20029;-80
2023/10/09 11:34:31;;;;;;;25.27;5.97;;;23.70;99.90;;;;;;5018413;28;20121;-79
2023/10/09 11:37:01;;;;;;;25.05;5.55;;;23.70;99.90;;;;;;5019368;28;20032;-80
2023/10/09 11:39:32;;;;;;;19.45;4.97;;;23.80;99.90;;;;;;5017982;28;21044;-80
2023/10/09 11:42:08;;;;;;;28.55;5.65;;;23.90;99.90;;;;;;5017473;28;20049;-81
2023/10/09 11:44:45;;;;;;;31.30;5.50;;;24.00;99.90;;;;;;5023066;28;20025;-80
2023/10/09 11:52:35;;;;;;;24.95;5.20;;;23.90;99.90;;;;;;5021380;28;20053;-80
2023/10/09 11:55:06;;;;;;;27.42;6.05;;;23.70;99.90;;;;;;5022737;28;21343;-80
2023/10/09 11:57:36;;;;;;;26.70;4.40;;;23.60;99.90;;;;;;5021587;28;20073;-80
2023/10/09 12:02:49;;;;;;;30.65;5.65;;;23.40;99.90;;;;;;5020540;28;20099;-80
2023/10/09 12:05:16;;;;;;;24.65;5.35;;;23.20;99.90;;;;;;5010809;28;20045;-80
2023/10/09 12:07:44;;;;;;;30.75;6.53;;;23.10;99.90;;;;;;5015694;28;20061;-79
2023/10/09 12:10:11;;;;;;;24.13;5.13;;;23.00;99.90;;;;;;5014894;28;20026;-79
2023/10/09 12:12:36;;;;;;;33.38;5.82;;;22.90;99.90;;;;;;5017500;28;20608;-79
2023/10/09 12:15:05;;;;;;;29.50;5.57;;;22.80;99.90;;;;;;5015407;28;20037;-79
2023/10/09 12:17:30;;;;;;;24.75;6.38;;;22.80;99.90;;;;;;5016210;28;20387;-80
2023/10/09 12:19:56;;;;;;;32.35;5.43;;;22.70;99.90;;;;;;5018250;28;20033;-79
2023/10/09 12:22:22;;;;;;;25.75;5.10;;;22.60;99.90;;;;;;5014644;28;20034;-79
2023/10/09 12:24:48;;;;;;;33.65;5.95;;;22.50;99.90;;;;;;5018426;28;20030;-79
2023/10/09 12:27:13;;;;;;;34.42;5.45;;;22.50;99.90;;;;;;5018085;28;20037;-79
2023/10/09 12:29:44;;;;;;;27.40;5.95;;;22.40;99.90;;;;;;5019593;28;20037;-81
2023/10/09 12:32:11;;;;;;;27.50;5.50;;;22.20;99.90;;;;;;5016497;28;20052;-79
2023/10/09 12:34:38;;;;;;;23.00;4.82;;;22.10;99.90;;;;;;5018380;28;20132;-79
2023/10/09 12:37:04;;;;;;;30.92;4.30;;;22.00;99.90;;;;;;5018338;28;20026;-79
2023/10/09 12:39:33;;;;;;;26.80;4.65;;;21.80;99.90;;;;;;5019154;28;20060;-80
2023/10/09 12:42:06;;;;;;;38.60;6.43;;;21.70;99.90;;;;;;5016007;28;21476;-80
2023/10/09 12:44:33;;;;;;;29.55;6.15;;;21.70;99.90;;;;;;5017434;28;20029;-79
2023/10/09 12:47:03;;;;;;;31.27;6.28;;;21.60;99.90;;;;;;5014103;28;20034;-80
2023/10/09 12:49:29;;;;;;;21.15;5.60;;;21.50;99.90;;;;;;5018515;28;20140;-81
2023/10/09 12:51:56;;;;;;;26.98;6.47;;;21.40;99.90;;;;;;5015399;28;20739;-80
2023/10/09 12:54:26;;;;;;;30.35;5.10;;;21.40;99.90;;;;;;4998365;28;20044;-81
2023/10/09 12:56:53;;;;;;;24.50;5.13;;;21.30;99.90;;;;;;5015210;28;20220;-79
2023/10/09 12:59:20;;;;;;;25.15;5.25;;;21.20;99.90;;;;;;5014478;28;21881;-87
2023/10/09 13:01:49;;;;;;;23.42;4.88;;;21.20;99.90;;;;;;5006774;28;20127;-87
2023/10/09 13:04:16;;;;;;;29.65;5.30;;;21.10;99.90;;;;;;5010543;28;20069;-87
2023/10/09 13:06:45;;;;;;;23.00;5.45;;;21.10;99.90;;;;;;5025265;28;21007;-87
2023/10/09 13:09:15;;;;;;;21.40;4.75;;;21.00;99.90;;;;;;5008111;28;20041;-87
2023/10/09 13:11:42;;;;;;;25.48;5.07;;;21.00;99.90;;;;;;5008093;28;20093;-87
2023/10/09 13:14:16;;;;;;;20.30;4.25;;;21.00;99.90;;;;;;5008156;28;20033;-87
2023/10/09 13:16:43;;;;;;;27.73;5.13;;;20.90;99.90;;;;;;5005966;28;20034;-88
2023/10/09 13:19:11;;;;;;;22.63;4.75;;;20.90;99.90;;;;;;5008954;28;20040;-87
2023/10/09 13:21:39;;;;;;;18.90;3.53;;;20.90;99.90;;;;;;5009984;28;20025;-86
2023/10/09 13:24:12;;;;;;;27.65;5.18;;;20.80;99.90;;;;;;4990757;28;20034;-87
2023/10/09 13:26:43;;;;;;;32.70;5.55;;;20.80;99.90;;;;;;5012549;28;20033;-86
2023/10/09 13:29:11;;;;;;;25.25;4.60;;;20.70;99.90;;;;;;5013282;28;20485;-87
2023/10/09 13:31:39;;;;;;;17.42;4.50;;;20.70;99.90;;;;;;5012948;28;20029;-87
2023/10/09 13:34:06;;;;;;;40.15;5.57;;;20.70;99.90;;;;;;5012360;28;20097;-88
2023/10/09 13:36:33;;;;;;;22.70;4.22;;;20.70;99.90;;;;;;5010745;28;20026;-88
2023/10/09 13:41:48;;;;;;;23.30;4.00;;;20.70;99.90;;;;;;5013758;28;20022;-88
2023/10/09 13:44:14;;;;;;;27.92;4.10;;;20.70;99.90;;;;;;5011670;28;21238;-87
2023/10/09 13:46:44;;;;;;;26.08;4.88;;;20.60;99.90;;;;;;5010695;28;20018;-86
2023/10/09 13:49:14;;;;;;;29.77;4.72;;;20.50;99.90;;;;;;4990937;28;20808;-87
2023/10/09 13:51:44;;;;;;;18.58;4.45;;;20.40;99.90;;;;;;5010436;28;20026;-86
2023/10/09 13:54:20;;;;;;;27.00;5.80;;;20.30;99.90;;;;;;5009557;28;20033;-85
2023/10/09 13:56:55;;;;;;;27.95;7.82;;;20.20;99.90;;;;;;5006662;28;20029;-86
2023/10/09 13:59:25;;;;;;;25.23;6.03;;;19.90;99.90;;;;;;5009104;28;20030;-85
2023/10/09 14:01:54;;;;;;;26.25;4.70;;;19.80;99.90;;;;;;5010938;28;20030;-84
2023/10/09 14:04:20;;;;;;;28.00;6.50;;;19.60;99.90;;;;;;5012242;28;20713;-85
2023/10/09 14:06:47;;;;;;;24.40;4.97;;;19.50;99.90;;;;;;5008738;28;20037;-84
2023/10/09 14:09:27;;;;;;;22.55;4.35;;;19.30;99.90;;;;;;5006583;28;21536;-85
2023/10/09 14:12:07;;;;;;;25.02;4.85;;;19.20;99.90;;;;;;5010337;28;20074;-84
2023/10/09 14:14:38;;;;;;;22.05;4.40;;;19.10;99.90;;;;;;5009343;28;20431;-84
2023/10/09 14:17:11;;;;;;;24.58;5.75;;;19.00;99.90;;;;;;5008380;28;20060;-84
2023/10/09 14:19:43;;;;;;;22.25;5.72;;;18.90;99.90;;;;;;5010986;28;20368;-84
2023/10/09 14:22:09;;;;;;;22.25;6.85;;;18.80;99.90;;;;;;5010149;28;20025;-85
2023/10/09 14:24:34;;;;;;;19.48;5.82;;;18.80;99.90;;;;;;5009677;28;20686;-82
2023/10/09 14:27:04;;;;;;;25.73;8.40;;;18.80;99.90;;;;;;5006267;28;20032;-83
2023/10/09 14:29:31;;;;;;;19.90;7.10;;;18.70;99.90;;;;;;5007734;28;20061;-84
2023/10/09 14:32:00;;;;;;;22.65;8.30;;;18.70;99.90;;;;;;5009140;28;20033;-84
2023/10/09 14:34:32;;;;;;;26.05;5.88;;;18.70;99.90;;;;;;5011880;28;20116;-84
2023/10/09 14:37:00;;;;;;;26.10;8.27;;;18.60;99.90;;;;;;5011731;28;20041;-84
2023/10/09 14:39:26;;;;;;;28.23;12.10;;;18.60;99.90;;;;;;5013665;28;20030;-83
2023/10/09 14:41:54;;;;;;;24.48;11.43;;;18.60;99.90;;;;;;5013614;28;20033;-84
2023/10/09 14:44:24;;;;;;;31.85;10.63;;;18.60;99.90;;;;;;5023294;28;20034;-84
2023/10/09 14:46:50;;;;;;;22.60;8.52;;;18.60;99.90;;;;;;5019003;28;20424;-85
2023/10/09 14:49:21;;;;;;;24.98;7.30;;;18.60;99.90;;;;;;5014445;28;20048;-84
2023/10/09 14:51:47;;;;;;;20.15;6.18;;;18.50;99.90;;;;;;5012782;28;20029;-85
2023/10/09 14:54:15;;;;;;;17.67;5.40;;;18.50;99.90;;;;;;5012672;28;20116;-84
2023/10/09 14:56:41;;;;;;;31.25;6.35;;;18.50;99.90;;;;;;5009766;28;20053;-84
2023/10/09 14:59:06;;;;;;;20.45;5.40;;;18.50;99.90;;;;;;5011899;28;20396;-84
2023/10/09 15:01:32;;;;;;;26.08;5.43;;;18.50;99.90;;;;;;5013689;28;20116;-79
2023/10/09 15:04:01;;;;;;;26.67;5.97;;;18.50;99.90;;;;;;5018072;28;20038;-79
2023/10/09 15:06:27;;;;;;;25.13;5.88;;;18.50;99.90;;;;;;5015322;28;20026;-80
2023/10/09 15:08:55;;;;;;;18.25;5.30;;;18.50;99.90;;;;;;5015946;28;20096;-85
2023/10/09 15:11:25;;;;;;;25.88;6.05;;;18.60;99.90;;;;;;5013209;28;21316;-86
2023/10/09 15:13:53;;;;;;;17.98;4.60;;;18.50;99.90;;;;;;5012418;28;21482;-85
2023/10/09 15:16:21;;;;;;;26.13;4.93;;;18.50;99.90;;;;;;5012801;28;20053;-85
2023/10/09 15:18:51;;;;;;;22.83;5.85;;;18.50;99.90;;;;;;5014681;28;21320;-84
2023/10/09 15:21:18;;;;;;;25.08;5.40;;;18.40;99.90;;;;;;5015075;28;20033;-86
2023/10/09 15:23:44;;;;;;;21.25;5.43;;;18.40;99.90;;;;;;5017152;28;20029;-84
2023/10/09 15:26:09;;;;;;;16.67;4.85;;;18.40;99.90;;;;;;5016688;28;20045;-84
2023/10/09 15:28:35;;;;;;;35.95;7.10;;;18.50;99.90;;;;;;5019399;28;20060;-84
2023/10/09 15:31:01;;;;;;;20.98;4.88;;;18.50;99.90;;;;;;5022721;28;20029;-82
2023/10/09 15:33:30;;;;;;;19.58;5.43;;;18.50;99.90;;;;;;5030824;28;20039;-81
2023/10/09 15:35:56;;;;;;;21.85;6.50;;;18.50;99.90;;;;;;5025699;28;20030;-85
2023/10/09 15:38:21;;;;;;;20.60;5.00;;;18.50;99.90;;;;;;5008203;28;20057;-83
2023/10/09 15:40:47;;;;;;;18.23;4.70;;;18.50;99.90;;;;;;5009775;28;20022;-84
2023/10/09 15:43:13;;;;;;;21.80;5.38;;;18.40;99.90;;;;;;5013375;28;21398;-85
2023/10/09 15:45:44;;;;;;;19.60;4.55;;;18.40;99.90;;;;;;5013843;28;20487;-85
2023/10/09 15:48:15;;;;;;;26.55;4.80;;;18.40;99.90;;;;;;5010520;28;20060;-84
2023/10/09 15:50:48;;;;;;;17.58;4.60;;;18.30;99.90;;;;;;5011977;28;20026;-85
2023/10/09 15:53:17;;;;;;;25.98;5.47;;;18.30;99.90;;;;;;5015479;28;20400;-85
2023/10/09 15:55:46;;;;;;;23.15;5.30;;;18.30;99.90;;;;;;5014776;28;20143;-86